createdAt,value
2022-10-25T00:00:49.300Z,36.20
2022-10-25T00:03:18.620Z,40.90
2022-10-25T00:05:46.457Z,41.03
2022-10-25T00:08:14.309Z,38.90
2022-10-25T00:10:42.158Z,43.63
2022-10-25T00:13:10.008Z,35.33
2022-10-25T00:15:37.828Z,31.83
2022-10-25T00:18:05.840Z,35.83
2022-10-25T00:20:37.088Z,32.60
2022-10-25T00:23:04.932Z,39.73
2022-10-25T00:25:32.763Z,36.90
2022-10-25T00:28:00.660Z,34.50
2022-10-25T00:30:28.630Z,39.60
2022-10-25T00:32:56.466Z,39.70
2022-10-25T00:35:24.585Z,35.30
2022-10-25T00:37:53.802Z,32.57
2022-10-25T00:40:21.699Z,39.10
2022-10-25T00:42:49.715Z,35.57
2022-10-25T00:45:23.091Z,32.83
2022-10-25T00:47:57.486Z,30.97
2022-10-25T00:50:47.046Z,35.37
2022-10-25T00:53:21.561Z,31.00
2022-10-25T00:55:55.418Z,30.87
2022-10-25T00:58:29.222Z,30.30
2022-10-25T01:00:57.737Z,37.77
2022-10-25T01:03:26.303Z,26.60
2022-10-25T01:05:54.944Z,30.63
2022-10-25T01:08:25.131Z,34.07
2022-10-25T01:10:52.953Z,29.60
2022-10-25T01:13:20.881Z,33.80
2022-10-25T01:15:58.084Z,29.73
2022-10-25T01:18:35.143Z,29.23
2022-10-25T01:21:23.464Z,29.00
2022-10-25T01:24:16.263Z,33.40
2022-10-25T01:27:11.757Z,30.10
2022-10-25T01:30:04.736Z,38.17
2022-10-25T01:32:41.351Z,28.47
2022-10-25T01:35:17.356Z,33.47
2022-10-25T01:38:07.344Z,35.97
2022-10-25T01:40:44.061Z,34.70
2022-10-25T01:43:21.184Z,33.40
2022-10-25T01:45:58.357Z,31.47
2022-10-25T01:48:32.792Z,34.03
2022-10-25T01:51:06.972Z,33.47
2022-10-25T01:53:34.855Z,33.10
2022-10-25T01:56:06.600Z,32.00
2022-10-25T01:58:43.911Z,34.60
2022-10-25T02:01:24.842Z,37.63
2022-10-25T02:04:01.031Z,30.10
2022-10-25T02:06:35.822Z,31.63
2022-10-25T02:09:07.905Z,32.53
2022-10-25T02:11:36.785Z,33.53
2022-10-25T02:14:16.252Z,34.90
2022-10-25T02:16:50.518Z,34.43
2022-10-25T02:19:24.750Z,35.67
2022-10-25T02:21:53.973Z,38.60
2022-10-25T02:24:24.168Z,34.37
2022-10-25T02:26:53.731Z,33.33
2022-10-25T02:29:23.887Z,31.90
2022-10-25T02:31:51.938Z,33.37
2022-10-25T02:34:21.467Z,33.43
2022-10-25T02:36:49.920Z,31.50
2022-10-25T02:39:18.672Z,31.43
2022-10-25T02:41:46.518Z,33.17
2022-10-25T02:44:14.720Z,31.87
2022-10-25T02:46:42.604Z,36.23
2022-10-25T02:49:10.504Z,31.67
2022-10-25T02:51:39.977Z,36.00
2022-10-25T02:54:07.854Z,34.47
2022-10-25T02:56:35.692Z,33.13
2022-10-25T02:59:03.544Z,33.17
2022-10-25T03:01:31.514Z,31.50
2022-10-25T03:03:59.539Z,32.07
2022-10-25T03:06:27.339Z,35.33
2022-10-25T03:08:56.528Z,32.57
2022-10-25T03:11:24.380Z,36.43
2022-10-25T03:13:52.211Z,33.73
2022-10-25T03:16:20.059Z,29.23
2022-10-25T03:18:48.033Z,32.20
2022-10-25T03:21:15.866Z,45.17
2022-10-25T03:23:43.657Z,31.37
2022-10-25T03:26:12.880Z,32.60
2022-10-25T03:28:40.739Z,29.93
2022-10-25T03:31:13.161Z,33.47
2022-10-25T03:33:41.695Z,34.87
2022-10-25T03:36:10.091Z,31.67
2022-10-25T03:38:38.100Z,29.13
2022-10-25T03:41:06.261Z,40.97
2022-10-25T03:43:35.462Z,36.03
2022-10-25T03:46:03.426Z,33.13
2022-10-25T03:48:31.311Z,36.53
2022-10-25T03:50:59.248Z,38.53
2022-10-25T03:53:27.088Z,33.63
2022-10-25T03:55:54.924Z,39.10
2022-10-25T03:58:22.795Z,30.87
2022-10-25T04:00:52.025Z,34.77
2022-10-25T04:03:19.927Z,34.57
2022-10-25T04:05:47.752Z,38.57
2022-10-25T04:08:15.637Z,33.57
2022-10-25T04:10:43.483Z,37.33
2022-10-25T04:13:11.321Z,33.80
2022-10-25T04:15:39.245Z,30.53
2022-10-25T04:18:08.606Z,37.20
2022-10-25T04:20:36.464Z,33.73
2022-10-25T04:23:04.320Z,33.97
2022-10-25T04:25:32.369Z,35.70
2022-10-25T04:28:00.620Z,33.30
2022-10-25T04:30:28.633Z,33.10
2022-10-25T04:32:58.296Z,35.67
2022-10-25T04:35:27.507Z,31.93
2022-10-25T04:37:58.317Z,39.63
2022-10-25T04:40:26.457Z,33.73
2022-10-25T04:42:54.319Z,36.37
2022-10-25T04:45:22.158Z,32.20
2022-10-25T04:47:49.975Z,32.23
2022-10-25T04:50:18.002Z,44.60
2022-10-25T04:52:47.609Z,44.23
2022-10-25T04:55:15.794Z,46.57
2022-10-25T04:57:44.684Z,45.17
2022-10-25T05:00:13.496Z,46.07
2022-10-25T05:02:41.354Z,38.60
2022-10-25T05:05:09.976Z,42.17
2022-10-25T05:07:37.824Z,32.83
2022-10-25T05:10:07.672Z,36.77
2022-10-25T05:12:35.527Z,40.40
2022-10-25T05:15:03.414Z,35.67
2022-10-25T05:17:31.324Z,36.13
2022-10-25T05:19:59.319Z,39.90
2022-10-25T05:22:29.256Z,36.63
2022-10-25T05:24:57.116Z,42.97
2022-10-25T05:27:26.465Z,32.33
2022-10-25T05:29:54.325Z,38.03
2022-10-25T05:32:22.218Z,35.33
2022-10-25T05:34:50.051Z,44.03
2022-10-25T05:37:17.922Z,27.53
2022-10-25T05:39:45.853Z,32.37
2022-10-25T05:42:13.676Z,35.40
2022-10-25T05:44:42.884Z,40.23
2022-10-25T05:47:10.794Z,29.27
2022-10-25T05:49:42.337Z,29.73
2022-10-25T05:52:12.363Z,28.10
2022-10-25T05:54:40.251Z,27.60
2022-10-25T05:57:08.085Z,26.63
2022-10-25T05:59:36.015Z,25.30
2022-10-25T06:02:05.353Z,26.47
2022-10-25T06:04:33.341Z,30.17
2022-10-25T06:07:01.232Z,22.93
2022-10-25T06:09:29.168Z,26.20
2022-10-25T06:11:57.021Z,24.37
2022-10-25T06:14:24.856Z,24.83
2022-10-25T06:16:52.712Z,22.13
2022-10-25T06:19:21.961Z,34.47
2022-10-25T06:21:49.893Z,36.27
2022-10-25T06:24:17.768Z,34.83
2022-10-25T06:26:45.642Z,37.00
2022-10-25T06:29:13.681Z,46.43
2022-10-25T06:31:41.694Z,35.60
2022-10-25T06:34:09.644Z,40.30
2022-10-25T06:36:39.024Z,30.40
2022-10-25T06:39:07.165Z,32.70
2022-10-25T06:41:37.686Z,29.03
2022-10-25T06:44:07.197Z,29.47
2022-10-25T06:46:52.602Z,27.35
2022-10-25T06:49:25.303Z,26.50
2022-10-25T06:51:54.782Z,29.85
2022-10-25T06:54:22.646Z,25.05
2022-10-25T06:56:50.622Z,28.35
2022-10-25T06:59:20.389Z,26.05
2022-10-25T07:01:50.080Z,24.05
2022-10-25T07:04:18.185Z,21.65
2022-10-25T07:06:48.806Z,24.70
2022-10-25T07:09:20.922Z,22.08
2022-10-25T07:11:48.767Z,31.10
2022-10-25T07:14:16.776Z,23.58
2022-10-25T07:16:44.717Z,23.15
2022-10-25T07:19:12.763Z,25.23
2022-10-25T07:21:40.615Z,33.53
2022-10-25T07:24:11.140Z,25.30
2022-10-25T07:26:40.918Z,21.48
2022-10-25T07:29:09.163Z,25.52
2022-10-25T07:31:39.672Z,32.03
2022-10-25T07:34:07.915Z,27.60
2022-10-25T07:36:35.782Z,27.95
2022-10-25T07:39:03.915Z,29.55
2022-10-25T07:41:31.837Z,27.75
2022-10-25T07:44:01.039Z,33.17
2022-10-25T07:46:28.933Z,25.15
2022-10-25T07:48:56.819Z,28.23
2022-10-25T07:51:25.068Z,28.70
2022-10-25T07:53:54.449Z,26.35
2022-10-25T07:56:23.681Z,30.67
2022-10-25T07:58:52.275Z,26.55
2022-10-25T08:01:23.806Z,30.10
2022-10-25T08:03:52.536Z,28.80
2022-10-25T08:06:21.781Z,23.17
2022-10-25T08:08:50.146Z,26.05
2022-10-25T08:11:18.925Z,30.55
2022-10-25T08:13:49.850Z,31.00
2022-10-25T08:16:18.367Z,26.90
2022-10-25T08:18:47.603Z,28.65
2022-10-25T08:21:15.556Z,31.02
2022-10-25T08:23:43.451Z,27.40
2022-10-25T08:26:11.429Z,32.30
2022-10-25T08:28:39.265Z,24.02
2022-10-25T08:31:07.287Z,24.48
2022-10-25T08:33:35.343Z,21.77
2022-10-25T08:36:04.812Z,24.15
2022-10-25T08:38:32.664Z,24.50
2022-10-25T08:41:10.205Z,20.30
2022-10-25T08:44:08.851Z,29.90
2022-10-25T08:46:41.942Z,23.55
2022-10-25T08:49:20.323Z,29.50
2022-10-25T08:51:51.758Z,27.95
2022-10-25T08:54:31.873Z,23.08
2022-10-25T08:57:15.446Z,27.38
2022-10-25T08:59:46.744Z,22.17
2022-10-25T09:02:21.064Z,25.83
2022-10-25T09:04:49.117Z,26.73
2022-10-25T09:07:41.969Z,19.30
2022-10-25T09:10:19.345Z,24.08
2022-10-25T09:12:55.285Z,21.85
2022-10-25T09:15:43.252Z,29.05
2022-10-25T09:18:16.926Z,29.23
2022-10-25T09:20:50.824Z,24.73
2022-10-25T09:23:28.011Z,24.88
2022-10-25T09:26:04.100Z,22.23
2022-10-25T09:28:50.596Z,33.40
2022-10-25T09:31:23.360Z,27.13
2022-10-25T09:33:58.890Z,23.92
2022-10-25T09:36:33.059Z,24.30
2022-10-25T09:39:06.884Z,22.70
2022-10-25T09:41:41.221Z,30.73
2022-10-25T09:44:16.829Z,24.55
2022-10-25T09:46:49.129Z,22.88
2022-10-25T09:49:26.119Z,22.30
2022-10-25T09:52:00.731Z,23.63
2022-10-25T09:54:34.007Z,25.58
2022-10-25T09:57:02.114Z,29.35
2022-10-25T09:59:30.089Z,26.45
2022-10-25T10:01:58.094Z,28.38
2022-10-25T10:04:34.193Z,32.70
2022-10-25T10:07:07.484Z,24.50
2022-10-25T10:09:43.356Z,27.00
2022-10-25T10:12:20.672Z,25.67
2022-10-25T10:14:55.069Z,27.02
2022-10-25T10:17:24.299Z,24.65
2022-10-25T10:20:11.295Z,23.35
2022-10-25T10:22:45.622Z,23.83
2022-10-25T10:25:20.860Z,25.90
2022-10-25T10:27:50.476Z,26.65
2022-10-25T10:30:24.895Z,25.45
2022-10-25T10:32:58.756Z,29.85
2022-10-25T10:35:30.899Z,27.30
2022-10-25T10:38:25.029Z,26.05
2022-10-25T10:40:57.635Z,18.20
2022-10-25T10:43:30.054Z,30.88
2022-10-25T10:46:03.939Z,25.85
2022-10-25T10:48:41.888Z,27.10
2022-10-25T10:51:31.673Z,27.20
2022-10-25T10:54:12.676Z,22.15
2022-10-25T10:56:41.953Z,25.48
2022-10-25T10:59:29.359Z,25.45
2022-10-25T11:01:57.593Z,22.83
2022-10-25T11:04:26.389Z,23.13
2022-10-25T11:06:54.309Z,21.15
2022-10-25T11:09:25.437Z,28.85
2022-10-25T11:12:15.484Z,22.17
2022-10-25T11:14:43.939Z,20.48
2022-10-25T11:17:16.995Z,28.27
2022-10-25T11:19:54.467Z,21.83
2022-10-25T11:22:34.744Z,22.52
2022-10-25T11:25:17.394Z,20.55
2022-10-25T11:28:06.398Z,26.55
2022-10-25T11:30:41.192Z,22.60
2022-10-25T11:33:34.854Z,23.55
2022-10-25T11:36:23.975Z,26.90
2022-10-25T11:39:15.108Z,23.02
2022-10-25T11:41:48.717Z,17.85
2022-10-25T11:44:41.697Z,17.50
2022-10-25T11:47:19.321Z,24.42
2022-10-25T11:49:59.638Z,23.55
2022-10-25T11:52:54.450Z,18.70
2022-10-25T11:55:34.257Z,22.88
2022-10-25T11:58:11.382Z,24.73
2022-10-25T12:00:51.259Z,21.25
2022-10-25T12:03:32.485Z,17.50
2022-10-25T12:06:07.041Z,24.00
2022-10-25T12:08:43.019Z,21.23
2022-10-25T12:11:18.726Z,21.52
2022-10-25T12:13:51.626Z,22.25
2022-10-25T12:16:23.087Z,21.52
2022-10-25T12:18:53.714Z,19.73
2022-10-25T12:21:27.169Z,22.08
2022-10-25T12:23:56.186Z,19.85
2022-10-25T12:26:31.075Z,18.92
2022-10-25T12:29:01.747Z,19.30
2022-10-25T12:31:37.779Z,16.60
2022-10-25T12:34:10.216Z,15.35
2022-10-25T12:36:41.738Z,15.02
2022-10-25T12:39:17.615Z,11.05
2022-10-25T12:41:49.936Z,13.90
2022-10-25T12:44:33.868Z,17.42
2022-10-25T12:47:25.570Z,22.65
2022-10-25T12:50:14.706Z,20.88
2022-10-25T12:53:00.660Z,21.45
2022-10-25T12:55:42.005Z,16.95
2022-10-25T12:58:28.093Z,12.75
2022-10-25T13:01:11.215Z,28.02
2022-10-25T13:03:59.552Z,27.55
2022-10-25T13:06:34.653Z,18.67
2022-10-25T13:09:06.768Z,15.02
2022-10-25T13:11:38.321Z,18.27
2022-10-25T13:14:14.011Z,15.80
2022-10-25T13:16:41.843Z,14.02
2022-10-25T13:19:49.889Z,19.27
2022-10-25T13:22:46.824Z,17.15
2022-10-25T13:25:19.638Z,23.55
2022-10-25T13:28:21.361Z,12.73
2022-10-25T13:30:49.264Z,13.82
2022-10-25T13:33:33.763Z,16.95
2022-10-25T13:36:05.951Z,21.38
2022-10-25T13:38:39.644Z,18.88
2022-10-25T13:41:13.259Z,14.30
2022-10-25T13:44:02.220Z,16.33
2022-10-25T13:46:36.367Z,14.45
2022-10-25T13:49:23.410Z,18.05
2022-10-25T13:51:56.152Z,14.52
2022-10-25T13:54:24.804Z,19.45
2022-10-25T13:56:54.600Z,18.15
2022-10-25T13:59:38.612Z,20.08
2022-10-25T14:02:18.443Z,19.88
2022-10-25T14:04:46.671Z,20.80
2022-10-25T14:07:48.914Z,20.08
2022-10-25T14:10:36.082Z,20.58
2022-10-25T14:13:17.315Z,17.25
2022-10-25T14:15:53.411Z,13.30
2022-10-25T14:18:24.138Z,17.80
2022-10-25T14:20:55.449Z,19.40
2022-10-25T14:23:29.881Z,18.05
2022-10-25T14:25:59.521Z,19.83
2022-10-25T14:28:29.253Z,16.10
2022-10-25T14:30:59.242Z,15.73
2022-10-25T14:33:31.328Z,17.63
2022-10-25T14:36:09.906Z,18.48
2022-10-25T14:38:52.352Z,25.77
2022-10-25T14:41:25.747Z,17.73
2022-10-25T14:43:54.309Z,20.60
2022-10-25T14:46:24.157Z,18.42
2022-10-25T14:48:56.057Z,23.73
2022-10-25T14:51:28.069Z,15.73
2022-10-25T14:54:01.348Z,20.05
2022-10-25T14:56:32.917Z,16.35
2022-10-25T14:59:02.273Z,25.30
2022-10-25T15:01:30.540Z,22.00
2022-10-25T15:04:01.254Z,20.25
2022-10-25T15:06:32.418Z,18.42
2022-10-25T15:09:40.800Z,17.02
2022-10-25T15:12:08.355Z,20.30
2022-10-25T15:14:36.815Z,17.23
2022-10-25T15:17:06.262Z,20.13
2022-10-25T15:19:34.173Z,24.40
2022-10-25T15:22:10.784Z,18.63
2022-10-25T15:24:48.743Z,17.15
2022-10-25T15:27:27.902Z,22.85
2022-10-25T15:29:55.869Z,16.15
2022-10-25T15:32:25.439Z,23.95
2022-10-25T15:34:55.648Z,21.42
2022-10-25T15:37:25.131Z,22.30
2022-10-25T15:39:55.749Z,13.52
2022-10-25T15:42:26.411Z,19.83
2022-10-25T15:44:54.310Z,19.48
2022-10-25T15:47:31.741Z,23.48
2022-10-25T15:50:00.671Z,23.48
2022-10-25T15:52:29.032Z,21.02
2022-10-25T15:54:58.245Z,21.80
2022-10-25T15:57:27.355Z,19.45
2022-10-25T15:59:55.349Z,22.33
2022-10-25T16:02:27.172Z,20.70
2022-10-25T16:04:55.240Z,25.15
2022-10-25T16:07:23.223Z,24.02
2022-10-25T16:09:51.060Z,17.27
2022-10-25T16:12:31.587Z,21.77
2022-10-25T16:14:59.508Z,15.23
2022-10-25T16:17:27.332Z,23.08
2022-10-25T16:19:55.155Z,16.77
2022-10-25T16:22:22.996Z,18.90
2022-10-25T16:24:50.836Z,19.88
2022-10-25T16:27:18.800Z,26.58
2022-10-25T16:29:48.122Z,22.73
2022-10-25T16:32:18.542Z,26.83
2022-10-25T16:34:46.383Z,33.90
2022-10-25T16:37:14.205Z,22.20
2022-10-25T16:39:42.064Z,24.95
2022-10-25T16:42:28.569Z,25.27
2022-10-25T16:44:58.421Z,26.30
2022-10-25T16:47:26.623Z,23.05
2022-10-25T16:49:54.675Z,22.83
2022-10-25T16:52:23.102Z,27.42
2022-10-25T16:54:50.936Z,23.90
2022-10-25T16:57:18.852Z,28.60
2022-10-25T16:59:46.723Z,25.42
2022-10-25T17:02:21.334Z,26.30
2022-10-25T17:04:50.261Z,19.58
2022-10-25T17:07:18.748Z,33.33
2022-10-25T17:09:46.676Z,26.17
2022-10-25T17:12:14.524Z,26.08
2022-10-25T17:14:42.421Z,25.58
2022-10-25T17:17:11.009Z,22.38
2022-10-25T17:19:40.279Z,23.38
2022-10-25T17:22:08.922Z,27.85
2022-10-25T17:24:37.610Z,24.15
2022-10-25T17:27:06.241Z,27.95
2022-10-25T17:29:34.275Z,21.90
2022-10-25T17:32:02.173Z,21.95
2022-10-25T17:34:32.114Z,22.52
2022-10-25T17:37:02.300Z,27.38
2022-10-25T17:39:30.598Z,24.40
2022-10-25T17:41:58.473Z,20.38
2022-10-25T17:44:26.360Z,34.85
2022-10-25T17:46:55.494Z,31.45
2022-10-25T17:49:25.164Z,33.38
2022-10-25T17:51:53.035Z,32.88
2022-10-25T17:54:22.436Z,30.58
2022-10-25T17:56:50.359Z,30.08
2022-10-25T17:59:18.242Z,32.00
2022-10-25T18:01:46.202Z,27.27
2022-10-25T18:04:14.121Z,31.05
2022-10-25T18:06:42.059Z,31.65
2022-10-25T18:09:10.874Z,30.05
2022-10-25T18:11:40.219Z,28.83
2022-10-25T18:14:08.101Z,33.58
2022-10-25T18:16:35.940Z,32.08
2022-10-25T18:19:05.830Z,31.33
2022-10-25T18:21:34.740Z,22.45
2022-10-25T18:24:04.901Z,24.67
2022-10-25T18:26:33.801Z,20.10
2022-10-25T18:29:03.070Z,22.10
2022-10-25T18:31:31.097Z,24.07
2022-10-25T18:34:03.381Z,25.13
2022-10-25T18:36:32.103Z,18.23
2022-10-25T18:39:00.025Z,14.93
2022-10-25T18:41:30.149Z,14.07
2022-10-25T18:43:58.805Z,18.23
2022-10-25T18:46:30.739Z,18.30
2022-10-25T18:48:58.835Z,16.97
2022-10-25T18:51:28.911Z,15.90
2022-10-25T18:53:57.817Z,18.70
2022-10-25T18:56:26.212Z,17.13
2022-10-25T18:58:56.763Z,14.37
2022-10-25T19:01:27.921Z,17.03
2022-10-25T19:03:58.199Z,18.83
2022-10-25T19:06:26.416Z,14.57
2022-10-25T19:08:54.608Z,11.10
2022-10-25T19:11:22.511Z,15.53
2022-10-25T19:13:54.178Z,14.77
2022-10-25T19:16:22.226Z,18.77
2022-10-25T19:18:50.135Z,14.30
2022-10-25T19:21:19.695Z,17.10
2022-10-25T19:23:48.435Z,16.93
2022-10-25T19:26:19.458Z,15.83
2022-10-25T19:28:47.672Z,18.10
2022-10-25T19:31:17.916Z,13.87
2022-10-25T19:33:47.044Z,14.53
2022-10-25T19:36:15.107Z,14.70
2022-10-25T19:38:45.294Z,15.80
2022-10-25T19:41:17.135Z,15.23
2022-10-25T19:43:45.116Z,13.63
2022-10-25T19:46:14.089Z,14.60
2022-10-25T19:48:42.045Z,14.97
2022-10-25T19:51:12.097Z,13.70
2022-10-25T19:53:39.995Z,16.43
2022-10-25T19:56:11.421Z,13.97
2022-10-25T19:58:39.552Z,17.97
2022-10-25T20:01:10.229Z,16.87
2022-10-25T20:03:39.591Z,14.33
2022-10-25T20:06:09.983Z,13.50
2022-10-25T20:08:39.875Z,11.17
2022-10-25T20:11:11.596Z,18.43
2022-10-25T20:13:39.720Z,18.93
2022-10-25T20:16:08.699Z,14.43
2022-10-25T20:18:38.693Z,12.97
2022-10-25T20:21:08.859Z,13.37
2022-10-25T20:23:37.020Z,17.70
2022-10-25T20:26:14.335Z,20.93
2022-10-25T20:28:42.527Z,12.40
2022-10-25T20:31:11.258Z,13.27
2022-10-25T20:33:40.267Z,14.87
2022-10-25T20:36:11.513Z,16.13
2022-10-25T20:38:39.719Z,10.47
2022-10-25T20:41:10.270Z,9.30
2022-10-25T20:43:40.346Z,14.03
2022-10-25T20:46:09.400Z,16.80
2022-10-25T20:48:37.680Z,13.20
2022-10-25T20:51:07.811Z,12.83
2022-10-25T20:53:36.963Z,14.97
2022-10-25T20:56:05.268Z,12.30
2022-10-25T20:58:34.668Z,16.73
2022-10-25T21:01:04.192Z,16.73
2022-10-25T21:03:33.191Z,16.47
2022-10-25T21:06:03.489Z,14.47
2022-10-25T21:08:32.204Z,15.63
2022-10-25T21:11:01.992Z,14.60
2022-10-25T21:13:32.374Z,16.60
2022-10-25T21:16:00.547Z,20.03
2022-10-25T21:18:30.160Z,15.47
2022-10-25T21:21:01.747Z,14.90
2022-10-25T21:23:29.624Z,14.63
2022-10-25T21:26:00.738Z,13.90
2022-10-25T21:28:32.408Z,14.93
2022-10-25T21:31:02.117Z,18.27
2022-10-25T21:33:31.334Z,19.67
2022-10-25T21:36:03.776Z,12.83
2022-10-25T21:38:31.684Z,16.30
2022-10-25T21:41:06.748Z,15.23
2022-10-25T21:43:34.625Z,14.73
2022-10-25T21:46:05.930Z,15.90
2022-10-25T21:48:35.620Z,12.20
2022-10-25T21:51:03.471Z,15.67
2022-10-25T21:53:31.628Z,13.27
2022-10-25T21:56:11.530Z,14.73
2022-10-25T21:58:39.853Z,12.43
2022-10-25T22:01:09.324Z,16.20
2022-10-25T22:03:38.901Z,18.07
2022-10-25T22:06:07.776Z,15.23
2022-10-25T22:08:35.841Z,13.57
2022-10-25T22:11:06.955Z,11.07
2022-10-25T22:13:35.217Z,13.77
2022-10-25T22:16:05.651Z,16.30
2022-10-25T22:18:34.048Z,14.50
2022-10-25T22:21:05.941Z,13.70
2022-10-25T22:23:34.476Z,13.53
2022-10-25T22:26:03.593Z,12.23
2022-10-25T22:28:33.331Z,12.57
2022-10-25T22:31:06.515Z,15.80
2022-10-25T22:33:34.962Z,11.20
2022-10-25T22:36:05.991Z,11.67
2022-10-25T22:38:34.326Z,15.03
2022-10-25T22:41:03.702Z,12.20
2022-10-25T22:43:32.221Z,12.70
2022-10-25T22:46:02.271Z,9.50
2022-10-25T22:48:34.001Z,15.97
2022-10-25T22:51:02.321Z,15.13
2022-10-25T22:53:31.681Z,15.03
2022-10-25T22:56:01.852Z,14.53
2022-10-25T22:58:32.465Z,12.13
2022-10-25T23:03:36.986Z,16.03
2022-10-25T23:06:06.140Z,13.83
2022-10-25T23:08:35.544Z,13.20
2022-10-25T23:11:05.836Z,12.13
2022-10-25T23:13:36.322Z,12.27
2022-10-25T23:16:05.000Z,12.57
2022-10-25T23:18:33.381Z,13.73
2022-10-25T23:21:03.169Z,15.30
2022-10-25T23:23:38.120Z,10.57
2022-10-25T23:28:39.700Z,15.23
2022-10-25T23:31:09.343Z,10.37
2022-10-25T23:33:37.414Z,10.63
2022-10-25T23:36:10.226Z,12.17
2022-10-25T23:38:39.458Z,10.87
2022-10-25T23:41:07.645Z,12.73
2022-10-25T23:43:35.651Z,11.97
2022-10-25T23:46:03.612Z,10.77
2022-10-25T23:48:31.970Z,13.87
2022-10-25T23:53:34.999Z,13.30
2022-10-25T23:56:06.100Z,10.40
2022-10-25T23:58:33.999Z,11.97
